AirNav   TITAN Aviation Fuels
 
 352 users online  

5C8 Washburn Municipal Airport
Washburn, North Dakota, USA

GOING TO WASHBURN?


FAA INFORMATION EFFECTIVE 15 JULY 2021

Location

FAA Identifier: 5C8
Lat/Long: 47-21-04.1360N 101-01-33.2260W
47-21.068933N 101-01.553767W
47.3511489,-101.0258961
(estimated)
Elevation: 1908 ft. / 581.6 m (surveyed)
Variation: 10E (1985)
From city: 4 miles N of WASHBURN, ND
Time zone: UTC -5 (UTC -6 during Standard Time)
Zip code: 58577

Airport Operations

Airport use: Open to the public
Activation date: 12/1943
Control tower: no
ARTCC: MINNEAPOLIS CENTER
FSS: GRAND FORKS FLIGHT SERVICE STATION
NOTAMs facility: GFK (NOTAM-D service available)
Attendance: UNATNDD
Wind indicator: lighted
Segmented circle: yes
Lights: ACTVT MIRL RWY 08/26 - CTAF. LOW INTST NOT AVBL.
Beacon: white-green (lighted land airport)
Operates sunset to sunrise.

Airport Communications

CTAF: 122.9

Nearby radio navigation aids

VOR radial/distance  VOR name  Freq  Var
BISr325/38.3BISMARCK VOR/DME116.5012E

Airport Services

Parking: tiedowns
Airframe service: NONE
Powerplant service: NONE
Bottled oxygen: NONE
Bulk oxygen: NONE

Runway Information

Runway 8/26

Dimensions: 3700 x 60 ft. / 1128 x 18 m
Surface: concrete, in good condition
Runway edge lights: medium intensity
RUNWAY 8  RUNWAY 26
Latitude: 47-21.005825N47-21.004792N
Longitude: 101-02.022315W101-01.126860W
Elevation: 1907.0 ft.1907.4 ft.
Traffic pattern: leftleft
Runway heading: 080 magnetic, 090 true260 magnetic, 270 true
Markings: basic, in fair conditionbasic, in fair condition
Touchdown point: yes, no lightsyes, no lights
Obstructions: 11 ft. road, 485 ft. from runway, 155 ft. left and right of centerline, 26:1 slope to clearnone

Runway 17/35

Dimensions: 2204 x 135 ft. / 672 x 41 m
Surface: turf, in fair condition
Runway edge markings: RY 17/35 MKD WITH DALGT BOUNDARY MARKERS; BLACK/WHITE CONES.
Operational restrictions: CLSD WINTER MONTHS DUE TO LACK OF SNOW REMOVAL.
RUNWAY 17  RUNWAY 35
Latitude: 47-21.356988N47-20.994508N
Longitude: 101-01.518203W101-01.519457W
Elevation: 1903.9 ft.1906.4 ft.
Traffic pattern: leftleft
Runway heading: 170 magnetic, 180 true350 magnetic, 000 true
Runway end identifier lights: nono
Touchdown point: yes, no lightsyes, no lights
Obstructions: 16 ft. road, 334 ft. from runway, 160 ft. left and right of centerline, 20:1 slope to clearnone
+150 FT EAST-WEST TRANSMISSION LINE 9500' SOUTH ON EXTNDD CNTRLN.

Airport Ownership and Management from official FAA records

Ownership: Publicly-owned
Owner: WASHBURN AIRPORT AUTHORITY
BOX 403
WASHBURN, ND 58577
Phone (701) 390-3926
Manager: LYLE LELM
BOX 403
WASHBURN, ND 58577
Phone 701-390-3926

Airport Operational Statistics

Aircraft based on the field: 13
Single engine airplanes: 13
    
Aircraft operations: avg 109/week *
70% local general aviation
21% transient general aviation
7% military
2% air taxi
* for 12-month period ending 26 August 2019

Additional Remarks

+700' SMOKE STACK OF POWER PLANT LOCATED 6 MI WNW OF ARPT.
WATERFOWL,BLACKBIRDS, DEER AND ANTELOPE ON AND INVOF OF ARPT.
CONFIRM WINTER CONDITIONS WITH ARPT MGR AFTER MAJOR STORM PRIOR TO USE - SNOW REMOVAL IRREGULAR SCHEDULE.
FOR CD CTC MINNEAPOLIS ARTCC AT 651-463-5588.

Instrument Procedures

There are no published instrument procedures at 5C8.

Some nearby airports with instrument procedures:

KHZE - Mercer County Regional Airport (23 nm W)
D05 - Garrison Municipal Airport (25 nm NW)
Y19 - Mandan Regional Airport/Lawler Field (35 nm S)
KBIS - Bismarck Municipal Airport (37 nm S)
D57 - Glen Ullin Regional Airport (47 nm SW)
 
Loc | Ops | Rwys | IFR | FBO | Links
Com | Nav | Svcs | Stats | Notes

Bismarck Aero Center
AirBoss

 
Area around 5C8 (Washburn Municipal Airport)
 
Road maps at: MapQuest Bing Google
 
Aerial photo
WARNING: Photo may not be current or correct
Aerial photo of 5C8 (Washburn Municipal Airport)
Do you have a better or more recent aerial photo of Washburn Municipal Airport that you would like to share? If so, please send us your photo.

 
Sectional chart

 
Airport distance calculator
Flying to Washburn Municipal Airport? Find the distance to fly.

From to 5C8

Sunrise and sunset
Times for 02-Aug-2021
 Local
(UTC-5)
 Zulu
(UTC)
Morning civil twilight05:4910:49
Sunrise06:2511:25
Sunset21:1602:16
Evening civil twilight21:5202:52

Current date and time
Zulu (UTC)  02-Aug-2021 09:32:22
Local (UTC-5)  02-Aug-2021 04:32:22
 
METAR
KHZE 
23nm W 
020915Z AUTO 00000KT 10SM 16/11 A3017 RMK AO2 PWINO
KN60 
24nm NW 
020852Z AUTO 00000KT 16/11 A3016 RMK AO1 SLP206 T01610111 58004
KY19 
35nm S 
020915Z AUTO 14006KT 10SM SCT050 BKN060 16/12 A3019 RMK AO2 PWINO
KBIS 
37nm S 
020852Z AUTO 12005KT 10SM CLR 17/11 A3019 RMK AO2 SLP215 T01670111 50001 $
TAF
KBIS 
37nm S 
020520Z 0206/0306 VRB05KT P6SM FEW250
NOTAMs
Click for the latest NOTAMs
NOTAMs are issued by the DoD/FAA and will open in a separate window not controlled by AirNav.

 

 
 

Would you like to see your business listed on this page?

 If your business provides an interesting product or service to pilots, flight crews, aircraft, or users of the Washburn Municipal Airport, you should consider listing it here.  To start the listing process, click on the button below
 
Add a business
 

Other Pages about Washburn Municipal Airport

Update a link
 
Copyright © AirNav, LLC. All rights reserved. Privacy Policy  Contact